Time;durP1;ratioP1;P1;durP2;ratioP2;P2;SDS_P1;SDS_P2;PMS_P1;PMS_P2;Temp;Humidity;BMP_temperature;BMP_pressure;BME280_temperature;BME280_humidity;BME280_pressure;Samples;Min_cycle;Max_cycle;Signal;HPM_P1;HPM_P2
2021/12/19 00:01:32;;;;;;;27.47;18.37;;;10.70;99.90;;;;;;5071393;28;20450;-69
2021/12/19 00:04:16;;;;;;;31.67;19.20;;;10.60;99.90;;;;;;5072506;28;20465;-69
2021/12/19 00:09:29;;;;;;;25.93;17.30;;;10.60;99.90;;;;;;5051369;28;20466;-69
2021/12/19 00:11:56;;;;;;;32.07;20.30;;;10.60;99.90;;;;;;5051691;28;20833;-69
2021/12/19 00:14:23;;;;;;;28.80;18.77;;;10.60;99.90;;;;;;5065207;28;20426;-69
2021/12/19 00:16:50;;;;;;;29.10;18.43;;;10.70;99.90;;;;;;5071117;28;20458;-69
2021/12/19 00:19:16;;;;;;;26.10;17.33;;;10.60;99.90;;;;;;5070375;28;20432;-80
2021/12/19 00:21:43;;;;;;;502.33;291.50;;;10.60;99.90;;;;;;5068933;28;20433;-70
2021/12/19 00:24:09;;;;;;;260.90;149.53;;;10.70;99.90;;;;;;5071826;28;20453;-69
2021/12/19 00:26:34;;;;;;;36.70;25.03;;;10.70;99.90;;;;;;5070466;28;20462;-68
2021/12/19 00:29:00;;;;;;;28.60;19.00;;;10.80;99.90;;;;;;5071884;28;20179;-68
2021/12/19 00:31:27;;;;;;;28.17;17.60;;;10.70;99.90;;;;;;5070759;28;20210;-68
2021/12/19 00:33:53;;;;;;;25.87;18.07;;;10.70;99.90;;;;;;5072049;28;20179;-70
2021/12/19 00:36:19;;;;;;;28.67;18.83;;;10.70;99.90;;;;;;5070499;28;20410;-69
2021/12/19 00:38:47;;;;;;;28.17;18.60;;;10.70;99.90;;;;;;5049358;28;20419;-69
2021/12/19 00:41:13;;;;;;;30.00;20.17;;;10.70;99.90;;;;;;5051163;28;20419;-83
2021/12/19 00:46:09;;;;;;;27.10;18.00;;;10.70;99.90;;;;;;5076191;28;20466;-68
2021/12/19 00:48:42;;;;;;;31.17;18.70;;;10.70;99.90;;;;;;5057982;28;20700;-69
2021/12/19 00:51:10;;;;;;;27.57;19.63;;;10.70;99.90;;;;;;5075456;28;20495;-68
2021/12/19 00:53:37;;;;;;;29.07;18.63;;;10.70;99.90;;;;;;5074995;28;20431;-68
2021/12/19 00:56:04;;;;;;;27.13;18.80;;;10.70;99.90;;;;;;5075617;28;20466;-69
2021/12/19 00:58:30;;;;;;;29.97;20.80;;;10.70;99.90;;;;;;5073442;28;20430;-69
2021/12/19 01:00:56;;;;;;;32.20;20.20;;;10.70;99.90;;;;;;5076185;28;21033;-68
2021/12/19 01:03:22;;;;;;;31.67;20.10;;;10.70;99.90;;;;;;5074347;28;20512;-69
2021/12/19 01:05:48;;;;;;;29.10;19.27;;;10.70;99.90;;;;;;5075178;28;20417;-68
2021/12/19 01:08:14;;;;;;;28.43;20.00;;;10.70;99.90;;;;;;5075022;28;20405;-81
2021/12/19 01:10:43;;;;;;;28.83;19.47;;;10.70;99.90;;;;;;5075616;28;20423;-68
2021/12/19 01:13:09;;;;;;;29.03;18.77;;;10.70;99.90;;;;;;5074953;28;20953;-68
2021/12/19 01:15:35;;;;;;;31.33;19.53;;;10.60;99.90;;;;;;5074522;28;20494;-68
2021/12/19 01:18:02;;;;;;;29.10;20.70;;;10.60;99.90;;;;;;5070703;28;21056;-68
2021/12/19 01:20:30;;;;;;;26.80;18.37;;;10.70;99.90;;;;;;5060199;28;20422;-68
2021/12/19 01:22:56;;;;;;;31.50;20.33;;;10.70;99.90;;;;;;5073467;28;20826;-69
2021/12/19 01:25:22;;;;;;;32.17;20.60;;;10.70;99.90;;;;;;5072956;28;20408;-69
2021/12/19 01:27:48;;;;;;;29.20;20.37;;;10.60;99.90;;;;;;5073848;28;20472;-68
2021/12/19 01:30:16;;;;;;;33.53;20.20;;;10.70;99.90;;;;;;5073210;28;20218;-79
2021/12/19 01:32:42;;;;;;;28.73;20.30;;;10.70;99.90;;;;;;5073034;28;20460;-69
2021/12/19 01:35:10;;;;;;;28.37;19.20;;;10.60;99.90;;;;;;5074498;28;20456;-69
2021/12/19 01:37:36;;;;;;;30.80;20.07;;;10.70;99.90;;;;;;5056152;28;20488;-68
2021/12/19 01:40:04;;;;;;;32.90;20.07;;;10.70;99.90;;;;;;5074059;28;20430;-69
2021/12/19 01:42:31;;;;;;;28.77;19.40;;;10.70;99.90;;;;;;5073788;28;20455;-68
2021/12/19 01:44:58;;;;;;;27.57;19.80;;;10.70;99.90;;;;;;5074089;28;20503;-68
2021/12/19 01:47:23;;;;;;;28.00;17.57;;;10.70;99.90;;;;;;5073082;28;20765;-68
2021/12/19 01:49:50;;;;;;;35.23;18.37;;;10.70;99.90;;;;;;5073085;28;20426;-69
2021/12/19 01:52:16;;;;;;;20.30;14.60;;;10.70;99.90;;;;;;5073951;28;20661;-81
2021/12/19 01:54:41;;;;;;;20.13;15.60;;;10.70;99.90;;;;;;5072839;28;20468;-68
2021/12/19 01:57:07;;;;;;;19.43;14.10;;;10.70;99.90;;;;;;5073037;28;20775;-68
2021/12/19 01:59:33;;;;;;;16.43;12.20;;;10.70;99.90;;;;;;5071004;28;20711;-71
2021/12/19 02:01:59;;;;;;;18.27;12.37;;;10.70;99.90;;;;;;5072786;28;20632;-68
2021/12/19 02:04:30;;;;;;;17.07;12.70;;;10.70;99.90;;;;;;5072293;28;20177;-68
2021/12/19 02:06:57;;;;;;;16.70;13.90;;;10.80;99.90;;;;;;5069829;28;20169;-68
2021/12/19 02:09:24;;;;;;;17.43;12.17;;;10.80;99.90;;;;;;5071940;28;20929;-68
2021/12/19 02:11:50;;;;;;;17.07;13.10;;;10.70;99.90;;;;;;5072520;28;20464;-71
2021/12/19 02:14:15;;;;;;;20.67;14.70;;;10.70;99.90;;;;;;5072169;28;20435;-79
2021/12/19 02:16:41;;;;;;;19.30;14.13;;;10.70;99.90;;;;;;5073122;28;20462;-68
2021/12/19 02:19:09;;;;;;;18.10;13.87;;;10.70;99.90;;;;;;5072773;28;20267;-68
2021/12/19 02:21:35;;;;;;;20.57;14.70;;;10.70;99.90;;;;;;5072396;28;20795;-68
2021/12/19 02:24:06;;;;;;;18.50;13.83;;;10.70;99.90;;;;;;5074104;28;20417;-68
2021/12/19 02:26:32;;;;;;;19.77;14.97;;;10.80;99.90;;;;;;5072102;28;20451;-68
2021/12/19 02:28:57;;;;;;;21.47;15.63;;;10.70;99.90;;;;;;5073433;28;20458;-68
2021/12/19 02:31:24;;;;;;;23.27;15.43;;;10.60;99.90;;;;;;5072751;28;20244;-69
2021/12/19 02:39:42;;;;;;;26.20;16.83;;;10.70;99.90;;;;;;5059786;28;20478;-69
2021/12/19 02:50:08;;;;;;;22.80;16.13;;;10.70;99.90;;;;;;5069725;28;20466;-68
2021/12/19 02:52:34;;;;;;;23.23;16.90;;;10.70;99.90;;;;;;5071582;28;20470;-68
2021/12/19 02:54:59;;;;;;;23.13;15.10;;;10.70;99.90;;;;;;5072794;28;20906;-68
2021/12/19 02:57:25;;;;;;;22.40;17.30;;;10.70;99.90;;;;;;5070872;28;20418;-69
2021/12/19 02:59:51;;;;;;;23.83;16.93;;;10.70;99.90;;;;;;5054240;28;20202;-69
2021/12/19 03:02:18;;;;;;;22.83;16.23;;;10.70;99.90;;;;;;5071733;28;20423;-83
2021/12/19 03:04:56;;;;;;;23.47;15.40;;;10.70;99.90;;;;;;5058456;28;20230;-68
2021/12/19 03:07:24;;;;;;;20.60;16.30;;;10.70;99.90;;;;;;5051957;28;20484;-68
2021/12/19 03:17:57;;;;;;;25.87;16.40;;;10.70;99.90;;;;;;5073076;28;20400;-68
2021/12/19 03:20:24;;;;;;;24.17;16.77;;;10.70;99.90;;;;;;5072320;28;20410;-69
2021/12/19 03:22:50;;;;;;;22.10;17.07;;;10.70;99.90;;;;;;5072843;28;20419;-68
2021/12/19 03:25:16;;;;;;;22.33;16.90;;;10.70;99.90;;;;;;5073008;28;20419;-68
2021/12/19 03:27:42;;;;;;;23.23;15.73;;;10.60;99.90;;;;;;5072219;28;20967;-68
2021/12/19 03:30:09;;;;;;;19.47;15.57;;;10.70;99.90;;;;;;5051311;28;20431;-69
2021/12/19 03:32:34;;;;;;;21.03;15.50;;;10.70;99.90;;;;;;5051609;28;20454;-68
2021/12/19 03:35:01;;;;;;;22.03;15.73;;;10.70;99.90;;;;;;5070877;28;20479;-68
2021/12/19 03:37:26;;;;;;;19.17;13.73;;;10.60;99.90;;;;;;5070692;28;20417;-69
2021/12/19 03:39:57;;;;;;;19.97;13.93;;;10.60;99.90;;;;;;5071553;28;20413;-68
2021/12/19 03:42:26;;;;;;;18.07;13.20;;;10.50;99.90;;;;;;5072226;28;20169;-76
2021/12/19 03:44:53;;;;;;;16.63;12.60;;;10.60;99.90;;;;;;5071554;28;20461;-69
2021/12/19 03:47:20;;;;;;;17.53;13.77;;;10.60;99.90;;;;;;5072997;28;20422;-79
2021/12/19 03:49:46;;;;;;;17.77;12.00;;;10.60;99.90;;;;;;5070692;28;20424;-69
2021/12/19 03:52:13;;;;;;;14.17;10.83;;;10.60;99.90;;;;;;5057491;28;20458;-68
2021/12/19 03:54:38;;;;;;;15.00;11.67;;;10.60;99.90;;;;;;5051564;28;20429;-69
2021/12/19 03:57:04;;;;;;;14.87;11.73;;;10.60;99.90;;;;;;5051217;28;20491;-69
2021/12/19 03:59:31;;;;;;;15.93;11.83;;;10.60;99.90;;;;;;5051518;28;20181;-69
2021/12/19 04:01:57;;;;;;;13.10;9.77;;;10.60;99.90;;;;;;5052533;28;20354;-69
2021/12/19 04:04:23;;;;;;;11.30;9.80;;;10.60;99.90;;;;;;5063906;28;20442;-83
2021/12/19 04:06:49;;;;;;;14.43;9.90;;;10.60;99.90;;;;;;5072408;28;20856;-68
2021/12/19 04:09:14;;;;;;;10.03;8.50;;;10.50;99.90;;;;;;5072549;28;20897;-68
2021/12/19 04:11:40;;;;;;;9.90;8.43;;;10.50;99.90;;;;;;5063919;28;20217;-68
2021/12/19 04:14:06;;;;;;;11.10;8.17;;;10.50;99.90;;;;;;5051872;28;20239;-68
2021/12/19 04:16:32;;;;;;;9.33;7.30;;;10.40;99.90;;;;;;5059265;28;20202;-69
2021/12/19 04:18:57;;;;;;;8.63;7.73;;;10.40;99.90;;;;;;5070842;28;20199;-68
2021/12/19 04:21:23;;;;;;;7.63;6.83;;;10.40;99.90;;;;;;5070446;28;20174;-84
2021/12/19 04:23:49;;;;;;;8.43;7.20;;;10.30;99.90;;;;;;5069121;28;20175;-69
2021/12/19 04:26:14;;;;;;;8.90;8.00;;;10.30;99.90;;;;;;5072239;28;20181;-68
2021/12/19 04:28:40;;;;;;;9.30;7.17;;;10.30;99.90;;;;;;5069809;28;20198;-69
2021/12/19 04:31:06;;;;;;;9.60;8.60;;;10.30;99.90;;;;;;5055934;28;20186;-68
2021/12/19 04:33:33;;;;;;;9.70;8.43;;;10.30;99.90;;;;;;5056720;28;20429;-68
2021/12/19 04:36:02;;;;;;;8.93;8.03;;;10.30;99.90;;;;;;5071261;28;20569;-68
2021/12/19 04:54:47;;;;;;;8.90;7.50;;;10.40;99.90;;;;;;5071858;28;20409;-68
2021/12/19 04:57:33;;;;;;;8.97;8.00;;;10.40;99.90;;;;;;5071725;28;20417;-69
2021/12/19 05:00:09;;;;;;;8.70;7.43;;;10.40;99.90;;;;;;5051463;28;20427;-68
2021/12/19 05:02:48;;;;;;;10.57;8.00;;;10.50;99.90;;;;;;5049698;28;20432;-68
2021/12/19 05:05:43;;;;;;;9.33;7.87;;;10.40;99.90;;;;;;5051539;28;20864;-68
2021/12/19 05:16:21;;;;;;;9.60;7.67;;;10.40;99.90;;;;;;5051916;28;20398;-68
2021/12/19 05:18:49;;;;;;;9.17;8.10;;;10.30;99.90;;;;;;5057667;28;20433;-68
2021/12/19 05:21:23;;;;;;;11.53;8.30;;;10.30;99.90;;;;;;5071656;28;20423;-68
2021/12/19 05:24:05;;;;;;;11.77;8.87;;;10.30;99.90;;;;;;5070831;28;20409;-67
2021/12/19 05:26:30;;;;;;;13.40;9.63;;;10.30;99.90;;;;;;5070669;28;20398;-69
2021/12/19 05:28:57;;;;;;;13.90;9.20;;;10.30;99.90;;;;;;5073721;28;20954;-69
2021/12/19 05:31:23;;;;;;;12.30;9.93;;;10.30;99.90;;;;;;5074983;28;20221;-69
2021/12/19 05:33:48;;;;;;;10.80;8.57;;;10.30;99.90;;;;;;5066108;28;20423;-69
2021/12/19 05:46:57;;;;;;;15.90;11.30;;;10.30;99.90;;;;;;5053420;28;20459;-69
2021/12/19 05:49:23;;;;;;;14.40;10.33;;;10.30;99.90;;;;;;5054745;28;20418;-70
2021/12/19 05:51:49;;;;;;;14.73;11.17;;;10.30;99.90;;;;;;5053992;28;20647;-70
2021/12/19 05:54:15;;;;;;;13.73;10.30;;;10.30;99.90;;;;;;5054323;28;20909;-69
2021/12/19 05:56:42;;;;;;;16.67;11.17;;;10.20;99.90;;;;;;5053322;28;20258;-69
2021/12/19 05:59:09;;;;;;;15.80;12.00;;;10.30;99.90;;;;;;5053359;28;20679;-69
2021/12/19 06:01:37;;;;;;;14.50;12.17;;;10.20;99.90;;;;;;5052445;28;20440;-69
2021/12/19 06:04:02;;;;;;;15.47;11.00;;;10.30;99.90;;;;;;5064531;28;20429;-69
2021/12/19 06:06:28;;;;;;;16.17;11.80;;;10.20;99.90;;;;;;5073888;28;20845;-78
2021/12/19 06:08:54;;;;;;;18.63;12.40;;;10.20;99.90;;;;;;5073939;28;20179;-69
2021/12/19 06:11:20;;;;;;;14.30;11.23;;;10.20;99.90;;;;;;5072123;28;20215;-70
2021/12/19 06:13:45;;;;;;;16.53;11.57;;;10.20;99.90;;;;;;5073463;28;20414;-69
2021/12/19 06:16:11;;;;;;;15.10;12.07;;;10.20;99.90;;;;;;5073162;28;20190;-68
2021/12/19 06:18:37;;;;;;;15.07;10.97;;;10.20;99.90;;;;;;5056200;28;20254;-69
2021/12/19 06:21:04;;;;;;;13.77;10.63;;;10.20;99.90;;;;;;5074503;28;20188;-68
2021/12/19 06:23:30;;;;;;;12.80;10.17;;;10.30;99.90;;;;;;5072647;28;20534;-85
2021/12/19 06:25:56;;;;;;;14.33;10.37;;;10.30;99.90;;;;;;5073942;28;20912;-68
2021/12/19 06:28:22;;;;;;;15.20;10.20;;;10.30;99.90;;;;;;5073902;28;20432;-69
2021/12/19 06:30:48;;;;;;;12.10;10.37;;;10.30;99.90;;;;;;5065093;28;20189;-68
2021/12/19 06:33:14;;;;;;;13.40;10.60;;;10.30;99.90;;;;;;5057324;28;20462;-68
2021/12/19 06:35:39;;;;;;;16.73;10.43;;;10.30;99.90;;;;;;5073919;28;20411;-69
2021/12/19 06:38:06;;;;;;;13.80;10.30;;;10.30;99.90;;;;;;5061381;28;20895;-69
2021/12/19 06:40:32;;;;;;;14.60;10.73;;;10.30;99.90;;;;;;5052692;28;20175;-84
2021/12/19 06:42:58;;;;;;;14.63;10.87;;;10.30;99.90;;;;;;5054383;28;20424;-68
2021/12/19 06:45:24;;;;;;;16.20;10.90;;;10.30;99.90;;;;;;5053987;28;20854;-68
2021/12/19 06:47:51;;;;;;;14.67;10.67;;;10.20;99.90;;;;;;5053047;28;20421;-68
2021/12/19 06:50:17;;;;;;;15.40;11.63;;;10.20;99.90;;;;;;5053658;28;20415;-68
2021/12/19 06:52:43;;;;;;;15.10;10.00;;;10.20;99.90;;;;;;5052833;28;20462;-68
2021/12/19 06:55:11;;;;;;;15.23;10.50;;;10.10;99.90;;;;;;5053676;28;20430;-69
2021/12/19 06:57:38;;;;;;;16.00;11.23;;;10.20;99.90;;;;;;5052116;28;20450;-69
2021/12/19 07:00:07;;;;;;;13.43;10.23;;;10.10;99.90;;;;;;5053780;28;20963;-69
2021/12/19 07:02:33;;;;;;;14.20;9.73;;;10.10;99.90;;;;;;5051974;28;20422;-87
2021/12/19 07:04:59;;;;;;;13.50;10.10;;;10.10;99.90;;;;;;5052405;28;20409;-69
2021/12/19 07:07:25;;;;;;;12.37;9.50;;;10.00;99.90;;;;;;5053913;28;20414;-69
2021/12/19 07:09:51;;;;;;;11.77;8.77;;;10.10;99.90;;;;;;5052662;28;20423;-69
2021/12/19 07:12:17;;;;;;;13.93;8.77;;;10.10;99.90;;;;;;5053151;28;20203;-68
2021/12/19 07:14:44;;;;;;;10.43;8.57;;;10.00;99.90;;;;;;5061098;28;20207;-69
2021/12/19 07:17:11;;;;;;;9.50;8.43;;;10.00;99.90;;;;;;5069278;28;20447;-68
2021/12/19 07:19:37;;;;;;;9.23;7.80;;;10.00;99.90;;;;;;5057615;28;20413;-70
2021/12/19 07:22:03;;;;;;;9.37;6.73;;;10.00;99.90;;;;;;5066430;28;20515;-68
2021/12/19 07:24:29;;;;;;;9.93;6.60;;;10.00;99.90;;;;;;5071677;28;20203;-69
2021/12/19 07:26:55;;;;;;;8.37;6.70;;;10.00;99.90;;;;;;5070169;28;20890;-69
2021/12/19 07:29:21;;;;;;;7.70;6.90;;;10.00;99.90;;;;;;5068148;28;20496;-68
2021/12/19 07:31:46;;;;;;;12.23;7.77;;;10.00;99.90;;;;;;5070648;28;20336;-68
2021/12/19 07:34:12;;;;;;;7.87;7.07;;;10.10;99.90;;;;;;5067311;28;20216;-68
2021/12/19 07:36:42;;;;;;;7.33;6.63;;;10.10;99.90;;;;;;5066743;28;20188;-68
2021/12/19 07:39:20;;;;;;;9.20;7.30;;;10.10;99.90;;;;;;5056672;28;20509;-67
2021/12/19 07:41:46;;;;;;;7.23;6.53;;;10.10;99.90;;;;;;5068014;28;20774;-68
2021/12/19 07:44:12;;;;;;;9.03;6.63;;;10.10;99.90;;;;;;5070927;28;20419;-68
2021/12/19 07:46:38;;;;;;;9.63;7.97;;;10.10;99.90;;;;;;5068602;28;20700;-69
2021/12/19 07:49:03;;;;;;;8.40;7.60;;;10.10;99.90;;;;;;5052217;28;20200;-68
2021/12/19 07:51:29;;;;;;;7.37;6.50;;;10.10;99.90;;;;;;5063617;28;20185;-68
2021/12/19 07:53:55;;;;;;;7.87;6.90;;;10.00;99.90;;;;;;5066255;28;20674;-68
2021/12/19 07:56:20;;;;;;;7.83;6.87;;;10.00;99.90;;;;;;5056781;28;20208;-69
2021/12/19 07:58:46;;;;;;;7.77;6.80;;;10.00;99.90;;;;;;5059279;28;20186;-69
2021/12/19 08:01:12;;;;;;;9.20;8.30;;;10.00;99.90;;;;;;5060454;28;20201;-69
2021/12/19 08:03:37;;;;;;;8.03;7.20;;;9.90;99.90;;;;;;5070017;28;20178;-73
2021/12/19 08:06:03;;;;;;;8.07;7.30;;;10.00;99.90;;;;;;5070887;28;20184;-69
2021/12/19 08:08:32;;;;;;;7.40;6.60;;;10.00;99.90;;;;;;5072322;28;20205;-69
2021/12/19 08:13:43;;;;;;;8.10;6.90;;;10.00;99.90;;;;;;5068108;28;20463;-69
2021/12/19 08:16:09;;;;;;;7.07;6.47;;;10.10;99.90;;;;;;5071026;28;20838;-69
2021/12/19 08:18:35;;;;;;;7.43;6.73;;;10.10;99.90;;;;;;5067813;28;20435;-78
2021/12/19 08:21:01;;;;;;;7.80;7.10;;;10.00;99.90;;;;;;5059732;28;20185;-69
2021/12/19 08:23:27;;;;;;;8.20;7.40;;;10.00;99.90;;;;;;5071387;28;20473;-69
2021/12/19 08:25:52;;;;;;;7.30;6.70;;;10.00;99.90;;;;;;5070942;28;20433;-69
2021/12/19 08:28:18;;;;;;;6.90;6.00;;;10.10;99.90;;;;;;5070692;28;20181;-69
2021/12/19 08:30:44;;;;;;;7.47;6.77;;;10.10;99.90;;;;;;5071264;28;20182;-69
2021/12/19 08:33:10;;;;;;;6.87;6.27;;;10.20;99.90;;;;;;5071851;28;20542;-69
2021/12/19 08:35:35;;;;;;;8.73;7.30;;;10.10;99.90;;;;;;5070055;28;20267;-78
2021/12/19 08:38:01;;;;;;;8.37;7.63;;;10.10;99.90;;;;;;5070787;28;20222;-69
2021/12/19 08:40:29;;;;;;;8.57;7.77;;;10.10;99.90;;;;;;5071740;28;20311;-69
2021/12/19 08:42:57;;;;;;;9.10;8.30;;;10.20;99.90;;;;;;5070956;28;20173;-69
2021/12/19 08:45:23;;;;;;;8.43;7.73;;;10.20;99.90;;;;;;5062473;28;20474;-70
2021/12/19 08:47:49;;;;;;;7.97;7.17;;;10.30;99.90;;;;;;5065763;28;20486;-69
2021/12/19 08:50:15;;;;;;;8.60;7.63;;;10.20;99.90;;;;;;5059907;28;20205;-69
2021/12/19 08:52:42;;;;;;;8.80;7.90;;;10.30;99.90;;;;;;5068986;28;20445;-69
2021/12/19 08:55:10;;;;;;;8.63;7.87;;;10.20;99.90;;;;;;5072418;28;20452;-69
2021/12/19 08:57:36;;;;;;;7.73;6.93;;;10.30;99.90;;;;;;5072324;28;20742;-69
2021/12/19 09:00:07;;;;;;;7.50;6.70;;;10.40;99.90;;;;;;5072104;28;20411;-69
2021/12/19 09:02:33;;;;;;;7.57;6.87;;;10.30;99.90;;;;;;5072046;28;20440;-69
2021/12/19 09:04:59;;;;;;;8.47;6.67;;;10.30;99.90;;;;;;5075265;28;20426;-68
2021/12/19 09:07:24;;;;;;;8.33;7.60;;;10.30;99.90;;;;;;5075592;28;20410;-69
2021/12/19 09:09:50;;;;;;;8.50;6.77;;;10.20;99.90;;;;;;5074699;28;20182;-69
2021/12/19 09:12:16;;;;;;;7.03;6.43;;;10.20;99.90;;;;;;5074921;28;20203;-69
2021/12/19 09:14:42;;;;;;;6.87;6.30;;;10.20;99.90;;;;;;5073743;28;20248;-72
2021/12/19 09:17:08;;;;;;;7.17;6.57;;;10.30;99.90;;;;;;5072345;28;20990;-69
2021/12/19 09:19:34;;;;;;;7.53;6.80;;;10.20;99.90;;;;;;5075118;28;20195;-69
2021/12/19 09:21:59;;;;;;;8.07;7.33;;;10.30;99.90;;;;;;5074699;28;20183;-68
2021/12/19 09:24:25;;;;;;;7.30;6.60;;;10.20;99.90;;;;;;5075079;28;20198;-69
2021/12/19 09:26:51;;;;;;;7.30;6.60;;;10.20;99.90;;;;;;5056409;28;20519;-69
2021/12/19 09:29:17;;;;;;;7.53;6.80;;;10.20;99.90;;;;;;5055128;28;20645;-69
2021/12/19 09:31:42;;;;;;;8.63;7.20;;;10.20;99.90;;;;;;5068449;28;20203;-69
2021/12/19 09:34:10;;;;;;;8.80;7.90;;;10.20;99.90;;;;;;5075384;28;20891;-69
2021/12/19 09:36:35;;;;;;;8.50;7.67;;;10.30;99.90;;;;;;5074036;28;20524;-69
2021/12/19 09:39:03;;;;;;;8.50;7.70;;;10.30;99.90;;;;;;5073345;28;20433;-69
2021/12/19 09:41:32;;;;;;;9.03;7.43;;;10.30;99.90;;;;;;5073904;28;20233;-69
2021/12/19 09:44:02;;;;;;;8.97;7.17;;;10.30;99.90;;;;;;5073230;28;20822;-69
2021/12/19 09:46:31;;;;;;;7.47;6.77;;;10.30;99.90;;;;;;5073669;28;20457;-69
2021/12/19 09:48:57;;;;;;;7.83;7.10;;;10.30;99.90;;;;;;5072171;28;20524;-70
2021/12/19 09:51:23;;;;;;;10.03;8.07;;;10.30;99.90;;;;;;5072431;28;20522;-69
2021/12/19 09:53:49;;;;;;;8.27;7.50;;;10.30;99.90;;;;;;5073152;28;20909;-70
2021/12/19 09:56:15;;;;;;;11.23;9.60;;;10.30;99.90;;;;;;5071792;28;20201;-70
2021/12/19 09:58:41;;;;;;;9.50;8.50;;;10.30;99.90;;;;;;5072505;28;20200;-77
2021/12/19 10:01:09;;;;;;;9.80;8.43;;;10.30;99.90;;;;;;5072552;28;20414;-69
2021/12/19 10:03:35;;;;;;;11.67;7.53;;;10.30;99.90;;;;;;5071940;28;20179;-69
2021/12/19 10:06:22;;;;;;;9.00;8.07;;;10.40;99.90;;;;;;5067320;28;20431;-69
2021/12/19 10:09:15;;;;;;;8.10;6.87;;;10.50;99.90;;;;;;5072532;28;20428;-69
2021/12/19 10:14:28;;;;;;;9.10;8.10;;;10.30;99.90;;;;;;5072094;28;20435;-69
2021/12/19 10:16:55;;;;;;;8.73;7.57;;;10.40;99.90;;;;;;5068899;28;20541;-69
2021/12/19 10:19:21;;;;;;;9.60;7.27;;;10.30;99.90;;;;;;5072570;28;20420;-70
2021/12/19 10:21:47;;;;;;;9.37;8.27;;;10.30;99.90;;;;;;5052649;28;20418;-68
2021/12/19 10:24:35;;;;;;;8.90;7.77;;;10.20;99.90;;;;;;5065381;28;20436;-68
2021/12/19 10:27:02;;;;;;;8.30;7.10;;;10.20;99.90;;;;;;5072647;28;20318;-68
2021/12/19 10:29:46;;;;;;;8.83;6.87;;;10.20;99.90;;;;;;5073224;28;20492;-71
2021/12/19 10:32:12;;;;;;;7.63;6.77;;;10.10;99.90;;;;;;5073597;28;20499;-71
2021/12/19 10:34:39;;;;;;;8.30;6.90;;;10.10;99.90;;;;;;5072618;28;20935;-71
2021/12/19 10:37:05;;;;;;;7.37;6.30;;;10.20;99.90;;;;;;5073640;28;20234;-71
2021/12/19 10:39:39;;;;;;;6.53;5.83;;;10.20;99.90;;;;;;5074148;28;20448;-71
2021/12/19 10:42:05;;;;;;;7.30;6.23;;;10.10;99.90;;;;;;5071352;28;20680;-71
2021/12/19 10:47:27;;;;;;;8.47;7.60;;;9.90;99.90;;;;;;5058345;28;20438;-71
2021/12/19 10:49:54;;;;;;;29.93;23.83;;;10.00;99.90;;;;;;5061543;28;20422;-70
2021/12/19 10:52:49;;;;;;;67.63;39.03;;;9.90;99.90;;;;;;5064125;28;20466;-70
2021/12/19 10:55:18;;;;;;;8.80;7.90;;;9.90;99.90;;;;;;5051648;28;20445;-72
2021/12/19 10:57:44;;;;;;;5.63;5.13;;;10.00;99.90;;;;;;5070497;28;20412;-73
2021/12/19 11:00:22;;;;;;;5.90;5.40;;;10.00;99.90;;;;;;5073022;28;20424;-71
2021/12/19 11:02:48;;;;;;;5.67;5.17;;;10.00;99.90;;;;;;5072481;28;20427;-71
2021/12/19 11:05:52;;;;;;;4.20;3.90;;;10.00;99.90;;;;;;5073296;28;20415;-71
2021/12/19 11:08:18;;;;;;;4.60;4.30;;;10.00;99.90;;;;;;4991935;28;20547;-70
2021/12/19 11:10:43;;;;;;;4.80;4.40;;;10.00;99.90;;;;;;4989666;28;20505;-71
2021/12/19 11:13:11;;;;;;;4.50;4.20;;;10.00;99.90;;;;;;5020179;28;20234;-70
2021/12/19 11:15:37;;;;;;;4.50;4.20;;;10.10;99.90;;;;;;5063663;28;20550;-70
2021/12/19 11:18:04;;;;;;;4.70;4.40;;;10.10;99.90;;;;;;5059741;28;20428;-70
2021/12/19 11:20:29;;;;;;;5.00;4.67;;;10.10;99.90;;;;;;5070736;28;20451;-70
2021/12/19 11:22:56;;;;;;;4.30;4.00;;;10.20;99.90;;;;;;5072130;28;20434;-70
2021/12/19 11:25:21;;;;;;;5.33;4.93;;;10.20;99.90;;;;;;5073211;28;20184;-70
2021/12/19 11:27:47;;;;;;;5.10;4.70;;;10.20;99.90;;;;;;5071971;28;20415;-70
2021/12/19 11:30:14;;;;;;;4.57;4.27;;;10.30;99.90;;;;;;5073492;28;20165;-70
2021/12/19 11:32:50;;;;;;;5.20;4.90;;;10.20;99.90;;;;;;5072881;28;20239;-69
2021/12/19 11:35:22;;;;;;;3.90;3.60;;;10.10;99.90;;;;;;5073436;28;20408;-70
2021/12/19 11:38:04;;;;;;;4.47;4.17;;;10.20;99.90;;;;;;5072802;28;20499;-71
2021/12/19 11:40:35;;;;;;;5.00;4.60;;;10.20;99.90;;;;;;5070558;28;20426;-71
2021/12/19 11:43:04;;;;;;;5.23;4.83;;;10.20;99.90;;;;;;5068254;28;20522;-70
2021/12/19 11:48:07;;;;;;;4.50;4.17;;;10.30;99.90;;;;;;5061467;28;20435;-71
2021/12/19 11:50:35;;;;;;;4.47;4.17;;;10.30;99.90;;;;;;5052469;28;20174;-70
2021/12/19 11:53:03;;;;;;;504.30;316.70;;;10.30;99.90;;;;;;5061545;28;20520;-71
2021/12/19 11:55:36;;;;;;;12.83;9.53;;;10.30;99.90;;;;;;5072559;28;20489;-71
2021/12/19 11:58:07;;;;;;;4.20;3.80;;;10.30;99.90;;;;;;5070756;28;20743;-71
2021/12/19 12:00:35;;;;;;;3.97;3.67;;;10.30;99.90;;;;;;5072646;28;20402;-71
2021/12/19 12:03:12;;;;;;;4.20;3.80;;;10.40;99.90;;;;;;5070073;28;20433;-72
2021/12/19 12:05:50;;;;;;;3.60;3.30;;;10.30;99.90;;;;;;5081644;28;20434;-71
2021/12/19 12:08:25;;;;;;;4.90;4.40;;;10.20;99.90;;;;;;5089168;28;20412;-72
2021/12/19 12:10:58;;;;;;;5.07;4.67;;;10.10;99.90;;;;;;5060323;28;20920;-72
2021/12/19 12:13:35;;;;;;;5.60;5.10;;;10.20;99.90;;;;;;5069073;28;20975;-71
2021/12/19 12:16:19;;;;;;;6.00;5.50;;;10.20;99.90;;;;;;5052086;28;20805;-72
2021/12/19 12:18:45;;;;;;;6.33;5.70;;;10.20;99.90;;;;;;5062839;28;20411;-78
2021/12/19 12:21:21;;;;;;;6.20;5.70;;;10.20;99.90;;;;;;5070750;28;20427;-73
2021/12/19 12:24:13;;;;;;;6.03;5.50;;;10.20;99.90;;;;;;5058701;28;20911;-71
2021/12/19 12:27:05;;;;;;;6.47;5.87;;;10.20;99.90;;;;;;5066349;28;20822;-71
2021/12/19 12:29:32;;;;;;;5.40;5.00;;;10.10;99.90;;;;;;5053339;28;20836;-69
2021/12/19 12:31:58;;;;;;;6.60;6.10;;;10.10;99.90;;;;;;5054499;28;20471;-70
2021/12/19 12:34:23;;;;;;;5.73;5.30;;;10.20;99.90;;;;;;5076516;28;20809;-71
2021/12/19 12:36:49;;;;;;;6.00;5.40;;;10.10;99.90;;;;;;5070469;28;20198;-73
2021/12/19 12:39:21;;;;;;;5.60;5.10;;;10.20;99.90;;;;;;5062076;28;20296;-72
2021/12/19 12:41:57;;;;;;;6.20;5.70;;;10.20;99.90;;;;;;5073539;28;20420;-75
2021/12/19 12:44:23;;;;;;;22.97;15.47;;;10.30;99.90;;;;;;5075208;28;20473;-73
2021/12/19 12:46:53;;;;;;;519.40;353.83;;;10.30;99.90;;;;;;5049175;28;20935;-75
2021/12/19 12:49:29;;;;;;;23.83;17.63;;;10.30;99.90;;;;;;5066439;28;20512;-73
2021/12/19 12:51:57;;;;;;;6.47;5.97;;;10.40;99.90;;;;;;5070011;28;20841;-73
2021/12/19 12:54:37;;;;;;;7.00;6.37;;;10.30;99.90;;;;;;5068802;28;20480;-74
2021/12/19 12:57:09;;;;;;;6.30;5.80;;;10.30;99.90;;;;;;5072399;28;20419;-72
2021/12/19 12:59:39;;;;;;;7.53;6.77;;;10.30;99.90;;;;;;5072940;28;20405;-72
2021/12/19 13:02:19;;;;;;;7.47;6.87;;;10.40;99.90;;;;;;5075090;28;20910;-73
2021/12/19 13:04:47;;;;;;;6.67;6.17;;;10.40;99.90;;;;;;5064300;28;20412;-71
2021/12/19 13:07:17;;;;;;;6.83;6.23;;;10.40;99.90;;;;;;5069388;28;20511;-72
2021/12/19 13:09:46;;;;;;;6.13;5.63;;;10.30;99.90;;;;;;5075156;28;20431;-75
2021/12/19 13:12:29;;;;;;;6.60;6.10;;;10.40;99.90;;;;;;5067550;28;20544;-73
2021/12/19 13:14:57;;;;;;;7.50;6.90;;;10.40;99.90;;;;;;5062513;28;20443;-72
2021/12/19 13:17:26;;;;;;;5.73;5.23;;;10.30;99.90;;;;;;5070093;28;20429;-72
2021/12/19 13:20:03;;;;;;;4.50;4.20;;;10.40;99.90;;;;;;5074408;28;20415;-76
2021/12/19 13:22:43;;;;;;;4.73;4.33;;;10.40;99.90;;;;;;5074972;28;20459;-72
2021/12/19 13:25:15;;;;;;;4.70;4.40;;;10.40;99.90;;;;;;5073837;28;20428;-72
2021/12/19 13:27:46;;;;;;;5.20;4.80;;;10.40;99.90;;;;;;5074627;28;20822;-72
2021/12/19 13:30:16;;;;;;;6.00;4.83;;;10.40;99.90;;;;;;5073853;28;20500;-72
2021/12/19 13:32:51;;;;;;;5.07;4.77;;;10.40;99.90;;;;;;5074489;28;20447;-72
2021/12/19 13:35:50;;;;;;;5.40;5.07;;;10.30;99.90;;;;;;5074495;28;20416;-72
2021/12/19 13:38:24;;;;;;;4.90;4.60;;;10.30;99.90;;;;;;5072905;28;20417;-72
2021/12/19 13:40:49;;;;;;;5.20;4.80;;;10.30;99.90;;;;;;5072911;28;20831;-75
2021/12/19 13:43:32;;;;;;;4.83;4.43;;;10.30;99.90;;;;;;5074195;28;20423;-71
2021/12/19 13:46:11;;;;;;;5.80;5.30;;;10.30;99.90;;;;;;5074031;28;20226;-71
2021/12/19 13:48:38;;;;;;;5.93;5.33;;;10.20;99.90;;;;;;5074755;28;20429;-71
2021/12/19 13:51:07;;;;;;;4.87;4.47;;;10.20;99.90;;;;;;5074512;28;20467;-71
2021/12/19 13:53:35;;;;;;;4.53;4.23;;;10.20;99.90;;;;;;5074675;28;20476;-70
2021/12/19 13:56:16;;;;;;;5.17;4.23;;;10.20;99.90;;;;;;5074108;28;20424;-72
2021/12/19 13:58:48;;;;;;;4.03;3.73;;;10.20;99.90;;;;;;5064127;28;20415;-71